Time;durP1;ratioP1;P1;durP2;ratioP2;P2;SDS_P1;SDS_P2;PMS_P1;PMS_P2;Temp;Humidity;BMP_temperature;BMP_pressure;BME280_temperature;BME280_humidity;BME280_pressure;Samples;Min_cycle;Max_cycle;Signal;HPM_P1;HPM_P2
2022/06/24 00:00:17;;;;;;;10.98;3.30;;;;;;;13.42;100.00;100138.02;1521698;94;21056;-91
2022/06/24 00:02:48;;;;;;;10.10;3.98;;;;;;;13.44;100.00;100135.25;1533793;93;22159;-90
2022/06/24 00:05:15;;;;;;;15.55;4.40;;;;;;;13.47;100.00;100144.70;1508647;95;21081;-91
2022/06/24 00:07:47;;;;;;;7.87;4.70;;;;;;;13.48;100.00;100141.71;1511946;94;21145;-90
2022/06/24 00:10:17;;;;;;;12.53;3.67;;;;;;;13.48;100.00;100140.91;1540810;90;21061;-90
2022/06/24 00:12:45;;;;;;;10.72;4.33;;;;;;;13.47;100.00;100143.34;1582749;90;21049;-90
2022/06/24 00:15:12;;;;;;;10.30;5.10;;;;;;;13.45;100.00;100146.36;1582928;90;21179;-89
2022/06/24 00:17:38;;;;;;;6.75;4.30;;;;;;;13.48;100.00;100143.62;1585040;89;21116;-91
2022/06/24 00:20:08;;;;;;;7.40;3.80;;;;;;;13.49;100.00;100143.86;1608207;89;20927;-90
2022/06/24 00:22:47;;;;;;;7.62;3.92;;;;;;;13.50;100.00;100149.00;1557266;92;21666;-90
2022/06/24 00:25:23;;;;;;;11.80;4.42;;;;;;;13.49;100.00;100147.38;1558041;92;21486;-90
2022/06/24 00:28:10;;;;;;;13.20;4.80;;;;;;;13.55;100.00;100158.39;1486149;96;21266;-90
2022/06/24 00:30:43;;;;;;;9.55;4.70;;;;;;;13.63;100.00;100160.46;1491725;96;21081;-91
2022/06/24 00:33:16;;;;;;;10.35;5.78;;;;;;;13.71;100.00;100157.66;1491749;96;21076;-90
2022/06/24 00:35:47;;;;;;;15.40;6.25;;;;;;;13.76;100.00;100147.30;1470236;97;21155;-91
2022/06/24 00:38:35;;;;;;;12.70;5.75;;;;;;;13.80;100.00;100146.44;1470184;97;21113;-90
2022/06/24 00:41:11;;;;;;;20.57;8.15;;;;;;;13.83;100.00;100146.41;1470504;97;21144;-90
2022/06/24 00:43:51;;;;;;;26.35;9.30;;;;;;;13.85;100.00;100135.53;1508397;94;21001;-90
2022/06/24 00:46:25;;;;;;;28.07;8.88;;;;;;;13.86;100.00;100136.34;1502368;94;21626;-90
2022/06/24 00:48:55;;;;;;;38.88;13.15;;;;;;;13.88;100.00;100127.90;1532874;93;21070;-91
2022/06/24 00:51:23;;;;;;;37.65;14.13;;;;;;;13.89;100.00;100128.98;1534816;93;21102;-93
2022/06/24 00:53:53;;;;;;;58.55;19.70;;;;;;;13.91;100.00;100130.83;1534753;93;21670;-92
2022/06/24 00:56:23;;;;;;;73.52;25.90;;;;;;;13.94;100.00;100124.84;1534730;93;21125;-90
2022/06/24 00:58:59;;;;;;;103.62;35.55;;;;;;;13.98;100.00;100123.15;1534695;93;21647;-89
2022/06/24 01:01:41;;;;;;;123.13;42.62;;;;;;;14.02;100.00;100118.74;1512370;94;21106;-89
2022/06/24 01:04:11;;;;;;;116.80;40.80;;;;;;;14.02;100.00;100114.67;1474372;97;21116;-90
2022/06/24 01:06:41;;;;;;;104.17;38.00;;;;;;;14.03;100.00;100117.66;1497427;95;21930;-89
2022/06/24 01:09:08;;;;;;;126.75;43.42;;;;;;;14.04;100.00;100121.97;1497354;95;21157;-90
2022/06/24 01:11:40;;;;;;;127.30;43.40;;;;;;;14.02;100.00;100124.72;1497790;95;21093;-90
2022/06/24 01:14:07;;;;;;;109.30;38.35;;;;;;;14.03;100.00;100119.54;1497586;95;21149;-90
2022/06/24 01:16:34;;;;;;;113.77;40.92;;;;;;;14.02;100.00;100117.39;1497477;95;21283;-89
2022/06/24 01:19:04;;;;;;;115.37;42.65;;;;;;;14.00;100.00;100112.00;1510590;92;21216;-89
2022/06/24 01:21:41;;;;;;;141.53;47.13;;;;;;;13.97;100.00;100114.78;1587284;90;21053;-90
2022/06/24 01:24:15;;;;;;;116.15;41.70;;;;;;;13.94;100.00;100123.49;1585512;90;21065;-89
2022/06/24 01:26:47;;;;;;;130.18;44.20;;;;;;;13.95;100.00;100122.38;1587270;90;21054;-89
2022/06/24 01:29:14;;;;;;;124.50;42.15;;;;;;;13.92;100.00;100121.61;1530069;93;21129;-90
2022/06/24 01:31:45;;;;;;;165.77;48.30;;;;;;;13.90;100.00;100132.48;1529999;93;21143;-90
2022/06/24 01:34:11;;;;;;;149.02;50.17;;;;;;;13.86;100.00;100130.36;1529924;93;21457;-90
2022/06/24 01:36:38;;;;;;;164.88;53.50;;;;;;;13.88;100.00;100134.67;1530185;93;21075;-89
2022/06/24 01:39:05;;;;;;;134.20;48.73;;;;;;;13.86;100.00;100134.42;1534794;93;21159;-89
2022/06/24 01:41:31;;;;;;;137.37;46.20;;;;;;;13.87;100.00;100127.10;1562675;90;21093;-89
2022/06/24 01:43:58;;;;;;;150.62;48.38;;;;;;;13.89;100.00;100134.39;1582363;90;21144;-89
2022/06/24 01:46:24;;;;;;;143.25;47.70;;;;;;;13.91;100.00;100143.02;1582294;89;21153;-90
2022/06/24 01:48:51;;;;;;;162.37;51.85;;;;;;;13.90;100.00;100140.05;1582562;90;21116;-90
2022/06/24 01:51:19;;;;;;;150.95;51.42;;;;;;;13.91;100.00;100132.73;1562249;90;21045;-89
2022/06/24 01:53:46;;;;;;;155.87;49.42;;;;;;;13.91;100.00;100144.92;1561836;90;21098;-89
2022/06/24 01:56:12;;;;;;;131.87;46.98;;;;;;;13.94;100.00;100142.45;1582635;90;21156;-89
2022/06/24 01:58:38;;;;;;;131.67;44.58;;;;;;;13.97;100.00;100143.22;1623595;87;20984;-89
2022/06/24 02:01:04;;;;;;;126.97;43.95;;;;;;;13.98;100.00;100150.80;1641761;87;20997;-90
2022/06/24 02:03:34;;;;;;;134.63;45.80;;;;;;;13.96;100.00;100148.36;1641965;87;21013;-90
2022/06/24 02:06:04;;;;;;;127.17;40.70;;;;;;;13.97;100.00;100150.52;1641670;87;21107;-89
2022/06/24 02:08:31;;;;;;;106.32;37.95;;;;;;;13.98;100.00;100150.80;1619804;87;21162;-90
2022/06/24 02:13:46;;;;;;;106.58;35.25;;;;;;;14.03;100.00;100155.59;1641380;87;21081;-89
2022/06/24 02:16:13;;;;;;;87.82;33.70;;;;;;;14.06;100.00;100153.65;1641958;87;21040;-92
2022/06/24 02:18:40;;;;;;;90.67;33.23;;;;;;;14.09;100.00;100152.26;1641711;87;21080;-90
2022/06/24 02:21:07;;;;;;;98.78;35.17;;;;;;;14.13;100.00;100158.69;1642213;87;21116;-91
2022/06/24 02:23:33;;;;;;;82.25;30.90;;;;;;;14.19;100.00;100148.58;1641819;87;21032;-91
2022/06/24 02:26:00;;;;;;;95.67;34.55;;;;;;;14.24;100.00;100152.58;1680416;83;21013;-90
2022/06/24 02:28:26;;;;;;;103.17;33.75;;;;;;;14.27;100.00;100152.78;1734467;82;21093;-90
2022/06/24 02:30:55;;;;;;;97.25;33.83;;;;;;;14.33;100.00;100157.58;1734455;82;20914;-90
2022/06/24 02:33:22;;;;;;;91.25;32.45;;;;;;;14.38;100.00;100154.77;1691646;83;21908;-91
2022/06/24 02:35:48;;;;;;;80.50;29.02;;;;;;;14.43;100.00;100150.62;1695760;83;21053;-90
2022/06/24 02:38:14;;;;;;;83.37;30.70;;;;;;;14.49;100.00;100148.08;1696253;83;20946;-90
2022/06/24 02:40:46;;;;;;;97.75;31.97;;;;;;;14.58;100.00;100152.86;1695910;83;21007;-91
2022/06/24 02:43:22;;;;;;;96.35;33.10;;;;;;;14.68;100.00;100148.08;1695976;83;20959;-89
2022/06/24 02:45:55;;;;;;;93.67;31.55;;;;;;;14.80;100.00;100146.80;1696069;83;22483;-90
2022/06/24 02:48:22;;;;;;;91.45;31.73;;;;;;;14.92;100.00;100147.91;1696314;84;21037;-92
2022/06/24 02:50:57;;;;;;;85.07;30.90;;;;;;;15.05;100.00;100154.45;1696094;83;21045;-90
2022/06/24 02:53:24;;;;;;;78.50;28.70;;;;;;;15.14;100.00;100155.35;1695841;83;21475;-92
2022/06/24 02:55:55;;;;;;;75.55;27.10;;;;;;;15.25;100.00;100157.33;1695831;83;21539;-90
2022/06/24 02:58:22;;;;;;;66.65;25.02;;;;;;;15.35;100.00;100153.59;1668655;86;21104;-91
2022/06/24 03:00:48;;;;;;;64.80;24.32;;;;;;;15.48;100.00;100150.08;1668367;86;21066;-89
2022/06/24 03:03:18;;;;;;;57.67;22.82;;;;;;;15.69;100.00;100149.13;1668157;86;22263;-90
2022/06/24 03:05:45;;;;;;;45.38;18.77;;;;;;;15.92;100.00;100148.62;1668739;84;21023;-91
2022/06/24 03:08:13;;;;;;;38.55;14.43;;;;;;;16.14;100.00;100149.19;1668791;86;21061;-92
2022/06/24 03:10:40;;;;;;;30.20;13.58;;;;;;;16.32;100.00;100149.59;1668365;86;21138;-90
2022/06/24 03:13:06;;;;;;;25.40;10.38;;;;;;;16.47;100.00;100149.77;1668741;86;21003;-92
2022/06/24 03:15:32;;;;;;;24.45;9.28;;;;;;;16.54;100.00;100149.33;1668661;86;21516;-90
2022/06/24 03:17:59;;;;;;;22.22;9.58;;;;;;;16.65;100.00;100123.47;1668427;86;21354;-91
2022/06/24 03:20:26;;;;;;;19.60;9.63;;;;;;;16.65;100.00;100123.47;1668700;86;20951;-91
2022/06/24 03:22:52;;;;;;;20.05;8.05;;;;;;;16.82;100.00;100125.48;1677197;81;21086;-91
2022/06/24 03:25:18;;;;;;;17.77;8.18;;;;;;;17.25;100.00;100136.55;1734227;81;21638;-94
2022/06/24 03:27:44;;;;;;;20.30;9.75;;;;;;;17.59;100.00;100144.59;1734436;81;20891;-93
2022/06/24 03:30:12;;;;;;;19.42;7.75;;;;;;;17.93;100.00;100142.47;1735106;81;21522;-93
2022/06/24 03:32:38;;;;;;;11.97;6.45;;;;;;;18.39;100.00;100143.74;1734404;81;21102;-91
2022/06/24 03:35:07;;;;;;;17.05;7.15;;;;;;;18.90;100.00;100138.50;1735462;81;21003;-94
2022/06/24 03:37:34;;;;;;;14.55;6.30;;;;;;;19.05;100.00;100156.28;1709988;82;21079;-93
2022/06/24 03:40:01;;;;;;;16.25;6.12;;;;;;;19.04;100.00;100165.05;1734484;81;21057;-94
2022/06/24 03:42:27;;;;;;;11.12;5.70;;;;;;;19.18;100.00;100167.56;1734742;81;21081;-94
2022/06/24 03:44:53;;;;;;;11.68;6.45;;;;;;;19.36;100.00;100164.76;1734685;81;21102;-95
2022/06/24 03:47:19;;;;;;;16.15;6.40;;;;;;;19.45;100.00;100163.57;1732321;81;21542;-95
2022/06/24 03:49:46;;;;;;;13.70;7.00;;;;;;;19.48;100.00;100168.38;1733026;82;21046;-95
2022/06/24 03:52:12;;;;;;;10.18;5.85;;;;;;;19.78;100.00;100168.39;1733545;81;21078;-95
2022/06/24 03:54:38;;;;;;;17.15;6.40;;;;;;;20.34;100.00;100166.17;1736893;82;20956;-96
2022/06/24 03:57:05;;;;;;;11.75;6.55;;;;;;;20.60;100.00;100159.68;1742179;82;21034;-95
2022/06/24 03:59:31;;;;;;;9.98;6.00;;;;;;;20.61;100.00;100159.91;1741464;82;21121;-96
2022/06/24 04:01:59;;;;;;;11.73;6.25;;;;;;;21.02;100.00;100156.79;1742412;82;21486;-96
2022/06/24 04:04:26;;;;;;;13.48;6.35;;;;;;;21.58;100.00;100157.05;1742953;82;21057;-96
2022/06/24 04:06:52;;;;;;;9.68;6.33;;;;;;;22.09;100.00;100157.41;1742564;82;20998;-96
2022/06/24 04:09:18;;;;;;;16.45;6.53;;;;;;;22.47;100.00;100161.61;1742591;82;20924;-96
2022/06/24 04:11:44;;;;;;;10.93;6.70;;;;;;;22.61;100.00;100155.71;1742443;82;21076;-96
2022/06/24 04:14:10;;;;;;;12.37;6.10;;;;;;;22.75;100.00;100159.42;1743171;82;20899;-96
2022/06/24 04:16:40;;;;;;;12.07;6.08;;;;;;;22.84;100.00;100159.47;1742508;82;21008;-96
2022/06/24 04:19:07;;;;;;;10.70;6.15;;;;;;;22.77;100.00;100159.88;1738897;82;21054;-96
2022/06/24 04:21:33;;;;;;;14.20;6.83;;;;;;;23.09;100.00;100164.27;1742340;81;21487;-96
2022/06/24 04:23:59;;;;;;;13.28;6.50;;;;;;;23.13;100.00;100171.22;1741358;82;21101;-95
2022/06/24 04:26:27;;;;;;;12.13;5.95;;;;;;;23.33;100.00;100168.77;1741599;82;20892;-96
2022/06/24 04:28:52;;;;;;;8.30;5.80;;;;;;;23.57;100.00;100153.99;1741234;82;20943;-95
2022/06/24 04:31:19;;;;;;;10.60;6.00;;;;;;;24.32;100.00;100156.17;1741021;82;20879;-96
2022/06/24 04:33:45;;;;;;;11.28;5.92;;;;;;;25.01;100.00;100161.02;1741374;82;21094;-95
2022/06/24 04:36:12;;;;;;;13.65;6.10;;;;;;;25.46;100.00;100162.14;1741378;82;21135;-96
2022/06/24 04:38:40;;;;;;;14.23;7.08;;;;;;;25.50;100.00;100163.80;1740962;82;21015;-95
2022/06/24 04:41:16;;;;;;;13.85;6.47;;;;;;;25.75;100.00;100169.67;1740942;82;20999;-92
2022/06/24 04:43:43;;;;;;;11.03;6.72;;;;;;;25.60;100.00;100181.09;1739990;82;21049;-96
2022/06/24 04:46:09;;;;;;;13.22;6.28;;;;;;;25.58;100.00;100175.72;1746680;80;21083;-95
2022/06/24 04:48:36;;;;;;;12.78;7.12;;;;;;;25.10;100.00;100180.86;1774126;80;21515;-96
2022/06/24 04:51:03;;;;;;;14.87;8.38;;;;;;;25.06;100.00;100188.26;1779162;79;20988;-91
2022/06/24 04:53:31;;;;;;;16.90;8.08;;;;;;;24.73;100.00;100197.13;1779392;79;21595;-96
2022/06/24 04:55:58;;;;;;;15.08;8.73;;;;;;;24.02;100.00;100185.66;1779306;80;21039;-94
2022/06/24 04:58:24;;;;;;;19.73;9.95;;;;;;;23.88;100.00;100174.34;1779719;79;21101;-95
2022/06/24 05:00:51;;;;;;;22.07;10.50;;;;;;;23.90;100.00;100167.91;1779412;80;21124;-95
2022/06/24 05:03:17;;;;;;;20.88;9.93;;;;;;;23.98;100.00;100179.30;1779860;80;20981;-95
2022/06/24 05:05:43;;;;;;;17.98;9.43;;;;;;;24.15;100.00;100167.62;1779832;80;21004;-96
2022/06/24 05:08:09;;;;;;;17.12;8.83;;;;;;;24.21;100.00;100155.19;1781319;79;21019;-96
2022/06/24 05:10:35;;;;;;;19.55;9.65;;;;;;;24.65;100.00;100153.50;1779493;80;21251;-93
2022/06/24 05:13:01;;;;;;;20.97;9.80;;;;;;;24.94;100.00;100182.34;1779136;80;21654;-96
2022/06/24 05:15:27;;;;;;;20.35;9.98;;;;;;;24.59;100.00;100176.98;1780206;80;20919;-96
2022/06/24 05:17:53;;;;;;;23.50;11.55;;;;;;;24.59;100.00;100182.49;1779804;80;20969;-94
2022/06/24 05:20:20;;;;;;;20.80;10.25;;;;;;;24.34;100.00;100175.89;1779121;80;21531;-94
2022/06/24 05:22:45;;;;;;;21.65;10.80;;;;;;;23.91;100.00;100172.25;1778891;80;21117;-96
2022/06/24 05:25:11;;;;;;;22.25;10.70;;;;;;;23.56;100.00;100186.00;1778961;80;21129;-93
2022/06/24 05:27:37;;;;;;;24.67;10.78;;;;;;;23.30;100.00;100181.06;1779050;79;20947;-93
2022/06/24 05:30:04;;;;;;;20.77;10.85;;;;;;;23.16;100.00;100186.20;1778941;80;20912;-95
2022/06/24 05:32:30;;;;;;;21.23;10.90;;;;;;;22.84;100.00;100195.77;1779395;80;21047;-93
2022/06/24 05:34:56;;;;;;;21.77;10.95;;;;;;;22.57;100.00;100191.33;1778956;79;20983;-93
2022/06/24 05:37:22;;;;;;;20.50;10.23;;;;;;;22.27;100.00;100189.52;1779166;79;21159;-94
2022/06/24 05:39:48;;;;;;;22.98;10.40;;;;;;;22.04;100.00;100194.70;1779190;80;20868;-95
2022/06/24 05:42:14;;;;;;;19.10;10.23;;;;;;;21.89;100.00;100192.67;1779156;80;21712;-95
2022/06/24 05:44:40;;;;;;;17.77;10.03;;;;;;;21.84;100.00;100188.79;1779377;79;21054;-95
2022/06/24 05:47:06;;;;;;;20.10;9.73;;;;;;;21.83;100.00;100191.31;1785776;79;21625;-88
2022/06/24 05:49:32;;;;;;;21.77;10.20;;;;;;;21.69;100.00;100195.20;1795744;80;21197;-95
2022/06/24 05:52:00;;;;;;;21.55;10.10;;;;;;;21.59;100.00;100197.06;1796064;80;20967;-94
2022/06/24 05:57:11;;;;;;;18.57;8.78;;;;;;;21.54;100.00;100207.67;1795703;78;21058;-96
2022/06/24 05:59:38;;;;;;;17.02;8.85;;;;;;;21.40;100.00;100206.41;1796182;80;21010;-93
2022/06/24 06:02:09;;;;;;;16.93;9.45;;;;;;;21.27;100.00;100213.23;1795956;80;21923;-94
2022/06/24 06:04:35;;;;;;;17.50;9.28;;;;;;;21.29;100.00;100212.88;1795616;80;20960;-94
2022/06/24 06:07:01;;;;;;;18.37;9.23;;;;;;;21.31;100.00;100218.25;1795804;80;20971;-94
2022/06/24 06:09:26;;;;;;;16.87;9.65;;;;;;;21.26;100.00;100227.27;1796296;80;20871;-94
2022/06/24 06:11:52;;;;;;;22.80;10.65;;;;;;;21.06;100.00;100226.20;1795859;80;20959;-94
2022/06/24 06:14:18;;;;;;;23.15;9.43;;;;;;;20.89;100.00;100226.41;1796467;79;21077;-95
2022/06/24 06:16:47;;;;;;;16.73;9.33;;;;;;;20.71;100.00;100223.05;1796135;79;20949;-92
2022/06/24 06:19:12;;;;;;;19.50;8.93;;;;;;;20.57;100.00;100207.70;1795760;80;21550;-94
2022/06/24 06:21:38;;;;;;;19.92;10.50;;;;;;;20.65;100.00;100197.81;1795411;79;20859;-93
2022/06/24 06:24:04;;;;;;;19.70;10.50;;;;;;;20.83;100.00;100192.38;1795939;78;21625;-94
2022/06/24 06:26:31;;;;;;;17.73;10.25;;;;;;;20.96;100.00;100193.77;1796164;80;21029;-94
2022/06/24 06:28:57;;;;;;;21.93;10.70;;;;;;;21.03;100.00;100192.08;1795634;78;21459;-94
2022/06/24 06:31:23;;;;;;;19.60;9.93;;;;;;;21.21;100.00;100200.10;1795775;78;20863;-91
2022/06/24 06:33:49;;;;;;;17.75;9.85;;;;;;;21.28;100.00;100200.33;1795673;79;21017;-92
2022/06/24 06:36:16;;;;;;;17.23;9.93;;;;;;;21.31;100.00;100208.66;1795630;80;20828;-92
2022/06/24 06:38:42;;;;;;;21.27;10.08;;;;;;;21.29;100.00;100208.19;1795210;80;21144;-91
2022/06/24 06:41:08;;;;;;;22.20;10.35;;;;;;;21.30;100.00;100210.39;1795754;80;20979;-94
2022/06/24 06:43:35;;;;;;;17.02;10.53;;;;;;;21.33;100.00;100198.16;1766969;80;20863;-94
2022/06/24 06:46:01;;;;;;;15.80;8.98;;;;;;;21.36;100.00;100200.83;1796116;78;21077;-95
2022/06/24 06:48:27;;;;;;;17.20;9.68;;;;;;;21.55;100.00;100190.64;1796095;80;21511;-94
2022/06/24 06:50:58;;;;;;;17.37;8.90;;;;;;;22.03;100.00;100190.36;1796565;80;21173;-94
2022/06/24 06:53:27;;;;;;;18.27;9.10;;;;;;;22.52;100.00;100196.27;1795904;80;21420;-95
2022/06/24 06:55:54;;;;;;;18.82;9.88;;;;;;;22.97;100.00;100204.20;1795795;80;21018;-90
2022/06/24 06:58:21;;;;;;;21.42;9.88;;;;;;;23.26;100.00;100204.91;1795663;79;21495;-94
2022/06/24 07:00:49;;;;;;;19.25;9.68;;;;;;;23.19;100.00;100210.24;1795659;80;21104;-93
2022/06/24 07:03:15;;;;;;;15.25;8.58;;;;;;;23.18;100.00;100202.58;1795345;80;21850;-91
2022/06/24 07:05:44;;;;;;;18.42;9.58;;;;;;;23.21;100.00;100203.81;1795577;80;21001;-93
2022/06/24 07:08:12;;;;;;;18.80;8.70;;;;;;;23.12;100.00;100212.23;1795782;80;20966;-91
2022/06/24 07:10:39;;;;;;;17.52;8.50;;;;;;;23.03;100.00;100215.70;1795702;78;20979;-89
2022/06/24 07:13:05;;;;;;;16.23;8.73;;;;;;;22.85;100.00;100216.59;1795597;80;21037;-92
2022/06/24 07:15:31;;;;;;;18.80;9.18;;;;;;;22.55;100.00;100216.17;1766650;80;21127;-96
2022/06/24 07:17:57;;;;;;;14.98;8.35;;;;;;;22.54;100.00;100216.75;1796270;80;21001;-93
2022/06/24 07:20:23;;;;;;;20.62;9.18;;;;;;;22.83;100.00;100215.58;1795914;80;21585;-92
2022/06/24 07:22:50;;;;;;;12.90;7.95;;;;;;;23.06;100.00;100208.95;1773624;80;21082;-93
2022/06/24 07:25:16;;;;;;;15.55;8.63;;;;;;;23.24;100.00;100209.98;1757693;81;21030;-95
2022/06/24 07:27:42;;;;;;;17.23;8.13;;;;;;;23.37;100.00;100212.84;1757594;81;21978;-96
2022/06/24 07:30:09;;;;;;;16.57;8.08;;;;;;;23.29;100.00;100209.11;1757677;81;21031;-93
2022/06/24 07:32:35;;;;;;;17.07;8.08;;;;;;;23.68;100.00;100201.02;1757822;81;21555;-91
2022/06/24 07:35:01;;;;;;;12.82;7.35;;;;;;;24.07;100.00;100195.61;1757800;81;20864;-93
2022/06/24 07:37:27;;;;;;;12.15;6.97;;;;;;;24.74;100.00;100188.52;1757261;81;21059;-91
2022/06/24 07:39:53;;;;;;;11.38;6.75;;;;;;;25.56;100.00;100189.91;1757584;81;21164;-92
2022/06/24 07:42:19;;;;;;;11.10;6.62;;;;;;;26.42;100.00;100181.98;1757159;81;21736;-90
2022/06/24 07:44:45;;;;;;;11.78;6.92;;;;;;;27.40;100.00;100181.96;1757099;81;21056;-88
2022/06/24 07:47:11;;;;;;;11.35;6.72;;;;;;;27.54;100.00;100182.66;1765886;80;20892;-90
2022/06/24 07:49:37;;;;;;;10.25;6.42;;;;;;;27.83;100.00;100173.97;1778708;80;21519;-91
2022/06/24 07:52:05;;;;;;;13.38;6.37;;;;;;;28.19;100.00;100176.11;1778670;80;21108;-89
2022/06/24 07:54:31;;;;;;;11.25;6.60;;;;;;;28.25;100.00;100171.77;1749805;80;21047;-91
2022/06/24 07:56:57;;;;;;;9.93;6.20;;;;;;;28.26;97.69;100168.59;1778683;80;20971;-91
2022/06/24 07:59:29;;;;;;;13.40;6.22;;;;;;;28.37;99.29;100170.03;1778610;80;20868;-91
2022/06/24 08:01:58;;;;;;;11.28;6.33;;;;;;;28.79;96.50;100159.44;1779048;80;20948;-90
2022/06/24 08:04:26;;;;;;;8.90;6.37;;;;;;;28.99;94.38;100164.21;1778669;80;21164;-88
2022/06/24 08:06:52;;;;;;;14.18;6.17;;;;;;;29.33;92.84;100174.17;1778777;80;20961;-92
2022/06/24 08:09:21;;;;;;;11.83;6.42;;;;;;;29.70;90.99;100165.38;1778312;80;21476;-90
2022/06/24 08:11:47;;;;;;;8.80;5.67;;;;;;;;;;1671211;84;21061;-89
2022/06/24 08:14:15;;;;;;;12.50;5.47;;;;;;;29.06;84.66;100166.81;1671082;85;21084;-92
2022/06/24 08:16:42;;;;;;;9.30;5.60;;;;;;;28.69;84.20;100163.20;1671420;85;21503;-92
2022/06/24 08:19:08;;;;;;;12.65;5.50;;;;;;;28.64;86.96;100162.19;1670963;85;21078;-92
2022/06/24 08:21:34;;;;;;;9.15;5.42;;;;;;;28.78;86.23;100158.66;1671238;85;20876;-91
2022/06/24 08:24:00;;;;;;;9.13;5.67;;;;;;;28.80;86.58;100151.34;1671178;85;21018;-90
2022/06/24 08:26:26;;;;;;;11.43;5.53;;;;;;;28.67;84.25;100153.09;1671211;85;21069;-95
2022/06/24 08:28:52;;;;;;;9.73;5.62;;;;;;;28.34;84.50;100148.63;1671282;85;21583;-90
2022/06/24 08:31:18;;;;;;;8.63;5.47;;;;;;;27.99;86.56;100147.32;1671361;85;21093;-90
2022/06/24 08:33:44;;;;;;;13.05;5.92;;;;;;;27.91;86.88;100154.00;1671156;85;21676;-91
2022/06/24 08:36:10;;;;;;;9.28;5.47;;;;;;;27.82;88.93;100156.34;1671218;85;21109;-89
2022/06/24 08:38:37;;;;;;;8.15;5.55;;;;;;;28.01;90.29;100150.50;1671262;85;21029;-91
2022/06/24 08:41:03;;;;;;;9.35;5.92;;;;;;;28.28;90.37;100150.20;1671423;85;21081;-93
2022/06/24 08:43:35;;;;;;;10.50;5.65;;;;;;;28.57;89.87;100144.77;1671132;85;21101;-90
2022/06/24 08:46:03;;;;;;;9.88;5.58;;;;;;;29.38;90.84;100139.83;1671444;85;21085;-89
2022/06/24 08:48:33;;;;;;;10.13;5.20;;;;;;;30.12;80.33;100133.09;1668343;84;21065;-88
2022/06/24 08:51:05;;;;;;;8.95;5.25;;;;;;;30.90;77.26;100128.27;1688004;83;21450;-90
2022/06/24 08:53:35;;;;;;;8.08;5.08;;;;;;;31.41;73.74;100129.41;1688002;84;21217;-90
2022/06/24 08:56:01;;;;;;;10.13;5.47;;;;;;;31.33;70.52;100125.89;1688246;84;21052;-89
2022/06/24 08:58:27;;;;;;;11.05;5.62;;;;;;;31.29;69.54;100115.98;1688314;84;21537;-89
2022/06/24 09:00:53;;;;;;;9.30;5.15;;;;;;;31.28;69.51;100108.84;1688369;84;20874;-89
2022/06/24 09:03:19;;;;;;;9.90;5.47;;;;;;;31.40;67.14;100099.98;1688566;84;21544;-88
2022/06/24 09:05:46;;;;;;;9.58;5.00;;;;;;;31.71;66.26;100096.66;1688450;84;21002;-86
2022/06/24 09:08:15;;;;;;;8.03;5.15;;;;;;;31.92;65.82;100099.02;1710584;81;20997;-87
2022/06/24 09:13:23;;;;;;;10.08;4.58;;;;;;;32.49;63.49;100103.20;1655237;85;21080;-90
2022/06/24 09:15:54;;;;;;;8.33;5.22;;;;;;;32.24;62.08;100105.52;1655567;85;20969;-87
2022/06/24 09:18:24;;;;;;;7.95;4.42;;;;;;;32.12;61.00;100110.48;1673973;84;21301;-88
2022/06/24 09:20:54;;;;;;;8.38;4.53;;;;;;;32.01;60.32;100117.41;1674015;84;20978;-87
2022/06/24 09:23:20;;;;;;;7.67;4.80;;;;;;;31.93;61.13;100120.09;1670685;84;21042;-90
2022/06/24 09:25:57;;;;;;;6.08;4.45;;;;;;;31.91;60.60;100117.71;1674276;84;20899;-91
2022/06/24 09:28:30;;;;;;;8.63;5.03;;;;;;;31.87;60.99;100114.16;1673861;84;21064;-91
2022/06/24 09:31:07;;;;;;;7.08;5.25;;;;;;;31.89;59.01;100114.55;1639589;86;21535;-92
2022/06/24 09:33:41;;;;;;;9.63;4.42;;;;;;;31.88;61.04;100132.45;1615231;88;21101;-93
2022/06/24 09:36:11;;;;;;;7.83;5.25;;;;;;;31.90;60.11;100135.05;1615567;88;21082;-87
2022/06/24 09:39:00;;;;;;;11.28;5.17;;;;;;;31.74;59.14;100142.37;1615113;88;21094;-91
2022/06/24 09:41:27;;;;;;;9.48;5.22;;;;;;;31.56;58.79;100143.97;1615241;87;21045;-91
2022/06/24 09:43:59;;;;;;;7.90;5.45;;;;;;;31.34;59.72;100151.73;1615385;87;21112;-90
2022/06/24 09:46:25;;;;;;;9.70;4.93;;;;;;;30.99;59.42;100160.59;1615746;88;21545;-92
2022/06/24 09:49:02;;;;;;;8.60;5.65;;;;;;;30.55;59.97;100158.68;1632903;86;21066;-87
2022/06/24 09:51:29;;;;;;;7.45;5.62;;;;;;;30.22;61.41;100161.45;1637137;87;21692;-93
2022/06/24 09:53:55;;;;;;;8.25;3.87;;;;;;;29.97;62.88;100155.96;1644891;87;21028;-89
2022/06/24 09:56:23;;;;;;;3.12;2.75;;;;;;;29.58;61.82;100161.62;1628810;87;21137;-89
2022/06/24 10:01:38;;;;;;;3.22;2.47;;;;;;;28.37;59.99;100165.86;1622624;88;21052;-91
2022/06/24 10:04:07;;;;;;;3.60;2.42;;;;;;;27.94;60.19;100160.15;1622295;88;21785;-89
2022/06/24 10:06:36;;;;;;;3.52;2.35;;;;;;;27.44;61.29;100167.34;1622561;87;21123;-90
2022/06/24 10:09:07;;;;;;;3.83;2.52;;;;;;;27.09;63.23;100162.53;1622798;88;21089;-94
2022/06/24 10:11:37;;;;;;;6.10;2.62;;;;;;;26.81;64.83;100159.51;1622815;88;20990;-89
2022/06/24 10:14:03;;;;;;;4.55;2.87;;;;;;;26.68;66.82;100160.38;1622756;88;21043;-93
2022/06/24 10:16:29;;;;;;;6.85;2.65;;;;;;;26.57;69.56;100158.88;1622376;88;21086;-93
2022/06/24 10:18:56;;;;;;;5.35;3.30;;;;;;;26.65;71.81;100155.59;1622630;88;21452;-87
2022/06/24 10:21:23;;;;;;;4.58;3.62;;;;;;;26.74;72.70;100151.95;1622873;88;21144;-92
2022/06/24 10:23:52;;;;;;;6.17;3.15;;;;;;;26.85;73.62;100158.94;1622559;88;21015;-89
2022/06/24 10:26:28;;;;;;;5.12;3.80;;;;;;;26.84;74.85;100144.33;1622841;88;20984;-88
2022/06/24 10:29:06;;;;;;;4.17;3.60;;;;;;;26.88;75.93;100149.88;1681941;81;21047;-94
2022/06/24 10:31:53;;;;;;;6.03;3.77;;;;;;;26.77;76.99;100150.37;1764946;81;21026;-90
2022/06/24 10:34:30;;;;;;;6.17;4.17;;;;;;;26.59;77.87;100142.72;1764622;81;21124;-87
2022/06/24 10:37:13;;;;;;;6.58;4.42;;;;;;;26.44;78.99;100136.78;1736457;82;21022;-90
2022/06/24 10:39:51;;;;;;;;;;;;;;;26.18;79.35;100129.42;1737515;82;21033;-89
2022/06/24 10:42:21;;;;;;;7.70;4.78;;;;;;;25.85;82.70;100139.84;1736702;82;20146;-90
2022/06/24 10:45:06;;;;;;;9.28;5.22;;;;;;;25.50;84.98;100145.87;1735939;82;21073;-93
2022/06/24 10:47:41;;;;;;;9.10;4.70;;;;;;;25.34;89.59;100152.11;1750597;79;21294;-89
2022/06/24 10:50:18;;;;;;;9.13;5.50;;;;;;;25.16;93.03;100154.59;1806098;78;21268;-93
2022/06/24 10:52:51;;;;;;;9.58;5.60;;;;;;;24.92;97.39;100168.16;1806764;79;21524;-91
2022/06/24 10:55:28;;;;;;;9.95;6.08;;;;;;;24.57;100.00;100171.85;1806472;78;20976;-91
2022/06/24 10:58:00;;;;;;;9.80;6.65;;;;;;;24.31;100.00;100169.73;1762191;81;21047;-94
2022/06/24 11:00:42;;;;;;;13.00;6.87;;;;;;;23.98;100.00;100193.65;1747498;82;21164;-94
2022/06/24 11:03:12;;;;;;;11.57;7.28;;;;;;;23.68;100.00;100191.39;1705067;84;22192;-90
2022/06/24 11:05:44;;;;;;;13.83;7.47;;;;;;;23.37;100.00;100188.09;1705372;84;21073;-93
2022/06/24 11:08:22;;;;;;;16.55;7.78;;;;;;;23.12;100.00;100193.00;1704851;84;21061;-96
2022/06/24 11:10:50;;;;;;;11.80;7.25;;;;;;;22.96;100.00;100197.09;1705311;84;21113;-94
2022/06/24 11:13:19;;;;;;;11.50;7.12;;;;;;;22.77;100.00;100199.13;1705239;84;21088;-91
2022/06/24 11:15:58;;;;;;;13.58;8.30;;;;;;;22.62;100.00;100199.33;1705108;84;21034;-92
2022/06/24 11:18:33;;;;;;;17.17;8.30;;;;;;;22.52;100.00;100205.88;1705630;84;21002;-93
2022/06/24 11:21:06;;;;;;;13.20;7.25;;;;;;;22.35;100.00;100201.48;1675197;85;21061;-95
2022/06/24 11:23:37;;;;;;;14.35;7.33;;;;;;;22.12;100.00;100200.63;1652176;85;21057;-92
2022/06/24 11:26:08;;;;;;;13.25;6.33;;;;;;;22.06;100.00;100203.94;1675584;85;21162;-96
2022/06/24 11:28:37;;;;;;;11.83;6.67;;;;;;;22.07;100.00;100206.34;1675200;85;20970;-95